Currently 81°F in Simi Valley, California, USA
81°F
84°F / 48°F
6 mph W
0.00"
Tuesday, October 15, 2019 3:35 PM PDT

Simi Valley, California Climate Summary
Typical September Day

Normal High:    86.6°F (30.3°C)
Normal Low:    60.6°F (15.9°C)
Average:    72.2°F (22.3°C)

Hour    Temperature    Wind Speed    Humidity
12:00 AM    66°F (19°C)    2 mph    64%
1:00 AM    65°F (18°C)    1 mph    65%
2:00 AM    64°F (18°C)    2 mph    66%
3:00 AM    64°F (18°C)    2 mph    67%
4:00 AM    63°F (17°C)    2 mph    68%
5:00 AM    63°F (17°C)    2 mph    69%
6:00 AM    62°F (17°C)    2 mph    70%
7:00 AM    62°F (17°C)    2 mph    71%
8:00 AM    64°F (18°C)    1 mph    71%
9:00 AM    69°F (21°C)    2 mph    65%
10:00 AM    75°F (24°C)    3 mph    56%
11:00 AM    80°F (27°C)    4 mph    47%
12:00 PM    83°F (28°C)    5 mph    42%
1:00 PM    85°F (29°C)    6 mph    39%
2:00 PM    85°F (30°C)    7 mph    39%
3:00 PM    85°F (29°C)    7 mph    40%
4:00 PM    83°F (29°C)    7 mph    42%
5:00 PM    82°F (28°C)    6 mph    44%
6:00 PM    79°F (26°C)    5 mph    47%
7:00 PM    76°F (24°C)    3 mph    53%
8:00 PM    73°F (23°C)    2 mph    59%
9:00 PM    70°F (21°C)    1 mph    61%
10:00 PM    68°F (20°C)    2 mph    62%
11:00 PM    67°F (19°C)    2 mph    63%
 

The Simi Valley, California weather pages are a service of WeatherCurrents.
Copyright ©2019  WeatherCurrents. All rights reserved. - Submit questions and comments - Privacy Policy